PWSweather.com
Personal Weather Stations
Station Observations

SkegnessGB

Lat: 53.147585, Lon: 0.345774

Elevation: 18

Station Type: Fine Offset WH3080

http://www.skegnessweather.info/

High Low Average
Temperature 61.3°F16.3°F 41.2°F5.1°F 49.4°F9.7°F
Dew Point 42.4°F5.8°F 33.7°F0.9°F 36.6°F2.6°F
Winds 5.7 mph WNW9.2 mph WNW 0.4 mph 0.6 mph 2.8 mph 4.5 mph
Wind Gusts 13.1 mph21.1 mph 1.6 mph2.6 mph 6.4 mph10.3 mph
Humidity 80% 38% 63%
Pressure 30.43 in1030.50 in 30.15 in1021.00 in -
Precipitation 0.00 in0.00 in - -
Hour Temp Dew Point Humidity Winds Wind Gusts Pressure Precip Precip Rate Daily Precip Total
12:00 AM 42.3°F5.7°C 34.6°F1.4°C 74% 2.2 mph W3.5 kmh W 4.5 mph7.2 kmh 30.43 in1030.5 mb 0.00 in0.0 mm 0.00 in0.0 mm 0.00 in0.0 mm
12:12 AM 42.3°F5.7°C 35.2°F1.8°C 76% 2.2 mph W3.5 kmh W 4.5 mph7.2 kmh 30.43 in1030.5 mb 0.00 in0.0 mm 0.00 in0.0 mm 0.00 in0.0 mm
12:24 AM 42.3°F5.7°C 35.2°F1.8°C 76% 2.2 mph W3.5 kmh W 6.1 mph9.8 kmh 30.43 in1030.5 mb 0.00 in0.0 mm 0.00 in0.0 mm 0.00 in0.0 mm
12:36 AM 42.3°F5.7°C 35.2°F1.8°C 76% 2.5 mph W4.0 kmh W 5.4 mph8.7 kmh 30.43 in1030.5 mb 0.00 in0.0 mm 0.00 in0.0 mm 0.00 in0.0 mm
12:48 AM 42.1°F5.6°C 35.4°F1.9°C 77% 2.4 mph W3.9 kmh W 5.4 mph8.7 kmh 30.42 in1030.1 mb 0.00 in0.0 mm 0.00 in0.0 mm 0.00 in0.0 mm
01:00 AM 42.1°F5.6°C 35.4°F1.9°C 77% 1.8 mph W2.9 kmh W 3.8 mph6.1 kmh 30.42 in1030.1 mb 0.00 in0.0 mm 0.00 in0.0 mm 0.00 in0.0 mm
01:12 AM 42.1°F5.6°C 35.4°F1.9°C 77% 1.8 mph W2.9 kmh W 3.8 mph6.1 kmh 30.42 in1030.1 mb 0.00 in0.0 mm 0.00 in0.0 mm 0.00 in0.0 mm
01:24 AM 42.1°F5.6°C 35.4°F1.9°C 77% 1.6 mph W2.6 kmh W 3.8 mph6.1 kmh 30.41 in1029.8 mb 0.00 in0.0 mm 0.00 in0.0 mm 0.00 in0.0 mm
01:36 AM 42.3°F5.7°C 35.6°F2.0°C 77% 1.1 mph W1.8 kmh W 3.2 mph5.1 kmh 30.41 in1029.8 mb 0.00 in0.0 mm 0.00 in0.0 mm 0.00 in0.0 mm
01:48 AM 42.3°F5.7°C 35.2°F1.8°C 76% 0.4 mph WSW0.6 kmh WSW 1.6 mph2.6 kmh 30.41 in1029.8 mb 0.00 in0.0 mm 0.00 in0.0 mm 0.00 in0.0 mm
02:00 AM 42.1°F5.6°C 35.1°F1.7°C 76% 1.4 mph W2.3 kmh W 3.2 mph5.1 kmh 30.41 in1029.8 mb 0.00 in0.0 mm 0.00 in0.0 mm 0.00 in0.0 mm
02:12 AM 41.9°F5.5°C 35.2°F1.8°C 77% 1.2 mph WSW1.9 kmh WSW 2.3 mph3.7 kmh 30.41 in1029.8 mb 0.00 in0.0 mm 0.00 in0.0 mm 0.00 in0.0 mm
02:24 AM 41.7°F5.4°C 35.4°F1.9°C 78% 0.7 mph WSW1.1 kmh WSW 2.3 mph3.7 kmh 30.41 in1029.8 mb 0.00 in0.0 mm 0.00 in0.0 mm 0.00 in0.0 mm
02:36 AM 41.5°F5.3°C 35.2°F1.8°C 78% 0.8 mph W1.3 kmh W 2.3 mph3.7 kmh 30.41 in1029.8 mb 0.00 in0.0 mm 0.00 in0.0 mm 0.00 in0.0 mm
02:48 AM 41.5°F5.3°C 35.5°F1.9°C 79% 0.9 mph WSW1.4 kmh WSW 3.2 mph5.1 kmh 30.40 in1029.5 mb 0.00 in0.0 mm 0.00 in0.0 mm 0.00 in0.0 mm
03:00 AM 41.5°F5.3°C 35.5°F1.9°C 79% 1.6 mph W2.6 kmh W 3.2 mph5.1 kmh 30.40 in1029.5 mb 0.00 in0.0 mm 0.00 in0.0 mm 0.00 in0.0 mm
03:12 AM 41.4°F5.2°C 35.3°F1.8°C 79% 1.8 mph W2.9 kmh W 3.8 mph6.1 kmh 30.40 in1029.5 mb 0.00 in0.0 mm 0.00 in0.0 mm 0.00 in0.0 mm
03:24 AM 41.4°F5.2°C 35.3°F1.8°C 79% 1.3 mph W2.1 kmh W 3.8 mph6.1 kmh 30.40 in1029.5 mb 0.00 in0.0 mm 0.00 in0.0 mm 0.00 in0.0 mm
03:36 AM 41.4°F5.2°C 35.7°F2.1°C 80% 0.8 mph W1.3 kmh W 2.3 mph3.7 kmh 30.40 in1029.5 mb 0.00 in0.0 mm 0.00 in0.0 mm 0.00 in0.0 mm
03:48 AM 41.2°F5.1°C 35.5°F1.9°C 80% 1.2 mph W1.9 kmh W 2.3 mph3.7 kmh 30.40 in1029.5 mb 0.00 in0.0 mm 0.00 in0.0 mm 0.00 in0.0 mm
04:00 AM 41.4°F5.2°C 35.3°F1.8°C 79% 1.5 mph W2.4 kmh W 3.2 mph5.1 kmh 30.40 in1029.5 mb 0.00 in0.0 mm 0.00 in0.0 mm 0.00 in0.0 mm
04:12 AM 41.4°F5.2°C 35.3°F1.8°C 79% 1.4 mph W2.3 kmh W 2.3 mph3.7 kmh 30.40 in1029.5 mb 0.00 in0.0 mm 0.00 in0.0 mm 0.00 in0.0 mm
04:24 AM 41.2°F5.1°C 35.2°F1.8°C 79% 1.5 mph W2.4 kmh W 3.2 mph5.1 kmh 30.39 in1029.1 mb 0.00 in0.0 mm 0.00 in0.0 mm 0.00 in0.0 mm
04:36 AM 41.2°F5.1°C 35.2°F1.8°C 79% 1.8 mph W2.9 kmh W 3.8 mph6.1 kmh 30.39 in1029.1 mb 0.00 in0.0 mm 0.00 in0.0 mm 0.00 in0.0 mm
04:48 AM 41.2°F5.1°C 35.2°F1.8°C 79% 1.3 mph W2.1 kmh W 3.2 mph5.1 kmh 30.39 in1029.1 mb 0.00 in0.0 mm 0.00 in0.0 mm 0.00 in0.0 mm
05:00 AM 41.2°F5.1°C 35.2°F1.8°C 79% 1.6 mph W2.6 kmh W 3.2 mph5.1 kmh 30.39 in1029.1 mb 0.00 in0.0 mm 0.00 in0.0 mm 0.00 in0.0 mm
05:12 AM 41.2°F5.1°C 35.2°F1.8°C 79% 1.6 mph W2.6 kmh W 3.2 mph5.1 kmh 30.39 in1029.1 mb 0.00 in0.0 mm 0.00 in0.0 mm 0.00 in0.0 mm
05:24 AM 41.4°F5.2°C 35.3°F1.8°C 79% 1.3 mph W2.1 kmh W 3.2 mph5.1 kmh 30.39 in1029.1 mb 0.00 in0.0 mm 0.00 in0.0 mm 0.00 in0.0 mm
05:36 AM 41.4°F5.2°C 35.3°F1.8°C 79% 1.7 mph W2.7 kmh W 3.2 mph5.1 kmh 30.39 in1029.1 mb 0.00 in0.0 mm 0.00 in0.0 mm 0.00 in0.0 mm
05:48 AM 41.7°F5.4°C 36.0°F2.2°C 80% 1.5 mph W2.4 kmh W 3.2 mph5.1 kmh 30.39 in1029.1 mb 0.00 in0.0 mm 0.00 in0.0 mm 0.00 in0.0 mm
06:00 AM 42.1°F5.6°C 36.4°F2.4°C 80% 2.0 mph W3.2 kmh W 4.5 mph7.2 kmh 30.39 in1029.1 mb 0.00 in0.0 mm 0.00 in0.0 mm 0.00 in0.0 mm
06:12 AM 42.6°F5.9°C 36.3°F2.4°C 78% 1.8 mph W2.9 kmh W 5.4 mph8.7 kmh 30.38 in1028.8 mb 0.00 in0.0 mm 0.00 in0.0 mm 0.00 in0.0 mm
06:24 AM 43.7°F6.5°C 36.3°F2.4°C 75% 2.6 mph W4.2 kmh W 7.0 mph11.3 kmh 30.39 in1029.1 mb 0.00 in0.0 mm 0.00 in0.0 mm 0.00 in0.0 mm
06:36 AM 43.7°F6.5°C 35.6°F2.0°C 73% 3.2 mph WNW5.1 kmh WNW 6.1 mph9.8 kmh 30.39 in1029.1 mb 0.00 in0.0 mm 0.00 in0.0 mm 0.00 in0.0 mm
06:48 AM 44.1°F6.7°C 35.3°F1.8°C 71% 2.4 mph W3.9 kmh W 6.1 mph9.8 kmh 30.39 in1029.1 mb 0.00 in0.0 mm 0.00 in0.0 mm 0.00 in0.0 mm
07:00 AM 44.1°F6.7°C 35.3°F1.8°C 71% 2.7 mph W4.3 kmh W 5.4 mph8.7 kmh 30.39 in1029.1 mb 0.00 in0.0 mm 0.00 in0.0 mm 0.00 in0.0 mm
07:12 AM 44.1°F6.7°C 35.3°F1.8°C 71% 3.1 mph W5.0 kmh W 6.1 mph9.8 kmh 30.39 in1029.1 mb 0.00 in0.0 mm 0.00 in0.0 mm 0.00 in0.0 mm
07:24 AM 44.4°F6.9°C 35.6°F2.0°C 71% 2.8 mph WNW4.5 kmh WNW 6.1 mph9.8 kmh 30.39 in1029.1 mb 0.00 in0.0 mm 0.00 in0.0 mm 0.00 in0.0 mm
07:36 AM 44.8°F7.1°C 35.2°F1.8°C 69% 2.1 mph W3.4 kmh W 4.5 mph7.2 kmh 30.39 in1029.1 mb 0.00 in0.0 mm 0.00 in0.0 mm 0.00 in0.0 mm
07:48 AM 46.6°F8.1°C 36.2°F2.3°C 67% 2.3 mph W3.7 kmh W 5.4 mph8.7 kmh 30.38 in1028.8 mb 0.00 in0.0 mm 0.00 in0.0 mm 0.00 in0.0 mm
08:00 AM 47.3°F8.5°C 35.4°F1.9°C 63% 3.7 mph W6.0 kmh W 7.0 mph11.3 kmh 30.38 in1028.8 mb 0.00 in0.0 mm 0.00 in0.0 mm 0.00 in0.0 mm
08:12 AM 47.3°F8.5°C 35.8°F2.1°C 64% 3.1 mph WNW5.0 kmh WNW 5.4 mph8.7 kmh 30.38 in1028.8 mb 0.00 in0.0 mm 0.00 in0.0 mm 0.00 in0.0 mm
08:24 AM 49.1°F9.5°C 36.2°F2.3°C 61% 3.0 mph W4.8 kmh W 7.7 mph12.4 kmh 30.38 in1028.8 mb 0.00 in0.0 mm 0.00 in0.0 mm 0.00 in0.0 mm
08:36 AM 50.2°F10.1°C 33.7°F0.9°C 53% 3.8 mph W6.1 kmh W 8.4 mph13.5 kmh 30.38 in1028.8 mb 0.00 in0.0 mm 0.00 in0.0 mm 0.00 in0.0 mm
08:48 AM 50.9°F10.5°C 35.3°F1.8°C 55% 4.3 mph W6.9 kmh W 11.5 mph18.5 kmh 30.38 in1028.8 mb 0.00 in0.0 mm 0.00 in0.0 mm 0.00 in0.0 mm
09:00 AM 51.6°F10.9°C 36.9°F2.7°C 57% 3.9 mph W6.3 kmh W 8.4 mph13.5 kmh 30.37 in1028.4 mb 0.00 in0.0 mm 0.00 in0.0 mm 0.00 in0.0 mm
09:12 AM 51.6°F10.9°C 36.0°F2.2°C 55% 4.5 mph WNW7.2 kmh WNW 11.5 mph18.5 kmh 30.38 in1028.8 mb 0.00 in0.0 mm 0.00 in0.0 mm 0.00 in0.0 mm
09:24 AM 50.9°F10.5°C 38.4°F3.6°C 62% 5.0 mph WNW8.0 kmh WNW 9.9 mph15.9 kmh 30.37 in1028.4 mb 0.00 in0.0 mm 0.00 in0.0 mm 0.00 in0.0 mm
09:36 AM 50.5°F10.3°C 38.0°F3.3°C 62% 5.0 mph WNW8.0 kmh WNW 11.5 mph18.5 kmh 30.37 in1028.4 mb 0.00 in0.0 mm 0.00 in0.0 mm 0.00 in0.0 mm
09:48 AM 50.5°F10.3°C 38.0°F3.3°C 62% 4.1 mph W6.6 kmh W 9.9 mph15.9 kmh 30.37 in1028.4 mb 0.00 in0.0 mm 0.00 in0.0 mm 0.00 in0.0 mm
10:00 AM 51.3°F10.7°C 39.1°F3.9°C 63% 3.9 mph W6.3 kmh W 11.5 mph18.5 kmh 30.37 in1028.4 mb 0.00 in0.0 mm 0.00 in0.0 mm 0.00 in0.0 mm
10:12 AM 52.0°F11.1°C 38.1°F3.4°C 59% 4.6 mph W7.4 kmh W 11.5 mph18.5 kmh 30.37 in1028.4 mb 0.00 in0.0 mm 0.00 in0.0 mm 0.00 in0.0 mm
10:24 AM 52.7°F11.5°C 39.2°F4.0°C 60% 3.1 mph WNW5.0 kmh WNW 8.4 mph13.5 kmh 30.36 in1028.1 mb 0.00 in0.0 mm 0.00 in0.0 mm 0.00 in0.0 mm
10:36 AM 52.5°F11.4°C 38.6°F3.7°C 59% 3.3 mph W5.3 kmh W 7.7 mph12.4 kmh 30.36 in1028.1 mb 0.00 in0.0 mm 0.00 in0.0 mm 0.00 in0.0 mm
10:48 AM 52.7°F11.5°C 38.3°F3.5°C 58% 3.1 mph W5.0 kmh W 8.4 mph13.5 kmh 30.35 in1027.8 mb 0.00 in0.0 mm 0.00 in0.0 mm 0.00 in0.0 mm
11:00 AM 55.0°F12.8°C 39.6°F4.2°C 56% 3.5 mph WNW5.6 kmh WNW 8.4 mph13.5 kmh 30.35 in1027.8 mb 0.00 in0.0 mm 0.00 in0.0 mm 0.00 in0.0 mm
11:12 AM 55.6°F13.1°C 39.2°F4.0°C 54% 2.9 mph NE4.7 kmh NE 7.0 mph11.3 kmh 30.34 in1027.4 mb 0.00 in0.0 mm 0.00 in0.0 mm 0.00 in0.0 mm
11:24 AM 52.9°F11.6°C 38.1°F3.4°C 57% 3.4 mph W5.5 kmh W 8.4 mph13.5 kmh 30.34 in1027.4 mb 0.00 in0.0 mm 0.00 in0.0 mm 0.00 in0.0 mm
11:36 AM 52.5°F11.4°C 39.0°F3.9°C 60% 3.2 mph WSW5.1 kmh WSW 7.0 mph11.3 kmh 30.34 in1027.4 mb 0.00 in0.0 mm 0.00 in0.0 mm 0.00 in0.0 mm
11:48 AM 52.9°F11.6°C 39.8°F4.3°C 61% 2.7 mph SW4.3 kmh SW 7.7 mph12.4 kmh 30.34 in1027.4 mb 0.00 in0.0 mm 0.00 in0.0 mm 0.00 in0.0 mm
12:00 PM 55.2°F12.9°C 42.4°F5.8°C 62% 2.2 mph SW3.5 kmh SW 8.4 mph13.5 kmh 30.33 in1027.1 mb 0.00 in0.0 mm 0.00 in0.0 mm 0.00 in0.0 mm
12:12 PM 57.0°F13.9°C 41.0°F5.0°C 55% 3.7 mph SSW6.0 kmh SSW 7.7 mph12.4 kmh 30.32 in1026.8 mb 0.00 in0.0 mm 0.00 in0.0 mm 0.00 in0.0 mm
12:24 PM 55.2°F12.9°C 39.8°F4.3°C 56% 2.7 mph NNW4.3 kmh NNW 7.7 mph12.4 kmh 30.32 in1026.8 mb 0.00 in0.0 mm 0.00 in0.0 mm 0.00 in0.0 mm
12:36 PM 54.5°F12.5°C 39.1°F3.9°C 56% 2.0 mph W3.2 kmh W 5.4 mph8.7 kmh 30.32 in1026.8 mb 0.00 in0.0 mm 0.00 in0.0 mm 0.00 in0.0 mm
12:48 PM 54.3°F12.4°C 39.9°F4.4°C 58% 2.6 mph W4.2 kmh W 6.1 mph9.8 kmh 30.32 in1026.8 mb 0.00 in0.0 mm 0.00 in0.0 mm 0.00 in0.0 mm
01:00 PM 57.9°F14.4°C 41.9°F5.5°C 55% 2.2 mph NE3.5 kmh NE 5.4 mph8.7 kmh 30.31 in1026.4 mb 0.00 in0.0 mm 0.00 in0.0 mm 0.00 in0.0 mm
01:12 PM 59.0°F15.0°C 41.4°F5.2°C 52% 3.0 mph E4.8 kmh E 7.7 mph12.4 kmh 30.30 in1026.1 mb 0.00 in0.0 mm 0.00 in0.0 mm 0.00 in0.0 mm
01:24 PM 57.0°F13.9°C 40.1°F4.5°C 53% 3.1 mph W5.0 kmh W 9.3 mph15.0 kmh 30.30 in1026.1 mb 0.00 in0.0 mm 0.00 in0.0 mm 0.00 in0.0 mm
01:36 PM 56.3°F13.5°C 34.7°F1.5°C 44% 3.2 mph W5.1 kmh W 7.7 mph12.4 kmh 30.30 in1026.1 mb 0.00 in0.0 mm 0.00 in0.0 mm 0.00 in0.0 mm
01:48 PM 56.7°F13.7°C 35.6°F2.0°C 45% 5.7 mph WNW9.2 kmh WNW 13.1 mph21.1 kmh 30.29 in1025.7 mb 0.00 in0.0 mm 0.00 in0.0 mm 0.00 in0.0 mm
02:00 PM 58.6°F14.8°C 36.2°F2.3°C 43% 4.0 mph WNW6.4 kmh WNW 9.9 mph15.9 kmh 30.29 in1025.7 mb 0.00 in0.0 mm 0.00 in0.0 mm 0.00 in0.0 mm
02:12 PM 58.5°F14.7°C 34.9°F1.6°C 41% 5.4 mph NW8.7 kmh NW 9.3 mph15.0 kmh 30.28 in1025.4 mb 0.00 in0.0 mm 0.00 in0.0 mm 0.00 in0.0 mm
02:24 PM 59.7°F15.4°C 36.0°F2.2°C 41% 2.4 mph W3.9 kmh W 6.1 mph9.8 kmh 30.27 in1025.1 mb 0.00 in0.0 mm 0.00 in0.0 mm 0.00 in0.0 mm
02:36 PM 59.2°F15.1°C 34.9°F1.6°C 40% 3.5 mph WNW5.6 kmh WNW 8.4 mph13.5 kmh 30.27 in1025.1 mb 0.00 in0.0 mm 0.00 in0.0 mm 0.00 in0.0 mm
02:48 PM 58.6°F14.8°C 34.4°F1.3°C 40% 5.1 mph W8.2 kmh W 10.8 mph17.4 kmh 30.27 in1025.1 mb 0.00 in0.0 mm 0.00 in0.0 mm 0.00 in0.0 mm
03:00 PM 57.7°F14.3°C 36.0°F2.2°C 44% 3.9 mph W6.3 kmh W 10.8 mph17.4 kmh 30.27 in1025.1 mb 0.00 in0.0 mm 0.00 in0.0 mm 0.00 in0.0 mm
03:12 PM 60.3°F15.7°C 35.2°F1.8°C 39% 4.6 mph W7.4 kmh W 8.4 mph13.5 kmh 30.27 in1025.1 mb 0.00 in0.0 mm 0.00 in0.0 mm 0.00 in0.0 mm
03:24 PM 58.1°F14.5°C 34.5°F1.4°C 41% 4.0 mph WNW6.4 kmh WNW 7.7 mph12.4 kmh 30.26 in1024.7 mb 0.00 in0.0 mm 0.00 in0.0 mm 0.00 in0.0 mm
03:36 PM 60.1°F15.6°C 34.4°F1.3°C 38% 3.8 mph WNW6.1 kmh WNW 9.3 mph15.0 kmh 30.25 in1024.4 mb 0.00 in0.0 mm 0.00 in0.0 mm 0.00 in0.0 mm
03:48 PM 60.1°F15.6°C 36.3°F2.4°C 41% 4.5 mph W7.2 kmh W 10.8 mph17.4 kmh 30.25 in1024.4 mb 0.00 in0.0 mm 0.00 in0.0 mm 0.00 in0.0 mm
04:00 PM 57.2°F14.0°C 34.9°F1.6°C 43% 5.6 mph WNW9.0 kmh WNW 9.3 mph15.0 kmh 30.25 in1024.4 mb 0.00 in0.0 mm 0.00 in0.0 mm 0.00 in0.0 mm
04:12 PM 61.3°F16.3°C 35.5°F1.9°C 38% 3.4 mph W5.5 kmh W 5.4 mph8.7 kmh 30.24 in1024.0 mb 0.00 in0.0 mm 0.00 in0.0 mm 0.00 in0.0 mm
04:24 PM 59.9°F15.5°C 35.5°F1.9°C 40% 4.4 mph W7.1 kmh W 9.3 mph15.0 kmh 30.24 in1024.0 mb 0.00 in0.0 mm 0.00 in0.0 mm 0.00 in0.0 mm
04:36 PM 59.7°F15.4°C 36.0°F2.2°C 41% 5.7 mph NW9.2 kmh NW 10.8 mph17.4 kmh 30.24 in1024.0 mb 0.00 in0.0 mm 0.00 in0.0 mm 0.00 in0.0 mm
04:48 PM 60.1°F15.6°C 36.3°F2.4°C 41% 4.2 mph W6.8 kmh W 9.3 mph15.0 kmh 30.23 in1023.7 mb 0.00 in0.0 mm 0.00 in0.0 mm 0.00 in0.0 mm
05:00 PM 58.6°F14.8°C 36.8°F2.7°C 44% 4.2 mph WNW6.8 kmh WNW 9.3 mph15.0 kmh 30.23 in1023.7 mb 0.00 in0.0 mm 0.00 in0.0 mm 0.00 in0.0 mm
05:12 PM 59.5°F15.3°C 37.0°F2.8°C 43% 3.6 mph W5.8 kmh W 8.4 mph13.5 kmh 30.22 in1023.4 mb 0.00 in0.0 mm 0.00 in0.0 mm 0.00 in0.0 mm
05:24 PM 58.6°F14.8°C 36.8°F2.7°C 44% 3.7 mph WNW6.0 kmh WNW 8.4 mph13.5 kmh 30.22 in1023.4 mb 0.00 in0.0 mm 0.00 in0.0 mm 0.00 in0.0 mm
05:36 PM 57.4°F14.1°C 36.8°F2.7°C 46% 4.0 mph W6.4 kmh W 7.7 mph12.4 kmh 30.22 in1023.4 mb 0.00 in0.0 mm 0.00 in0.0 mm 0.00 in0.0 mm
05:48 PM 57.9°F14.4°C 37.8°F3.2°C 47% 4.0 mph W6.4 kmh W 9.3 mph15.0 kmh 30.22 in1023.4 mb 0.00 in0.0 mm 0.00 in0.0 mm 0.00 in0.0 mm
06:00 PM 59.7°F15.4°C 37.8°F3.2°C 44% 4.2 mph W6.8 kmh W 9.3 mph15.0 kmh 30.21 in1023.0 mb 0.00 in0.0 mm 0.00 in0.0 mm 0.00 in0.0 mm
06:12 PM 58.6°F14.8°C 37.9°F3.3°C 46% 4.6 mph NW7.4 kmh NW 9.3 mph15.0 kmh 30.21 in1023.0 mb 0.00 in0.0 mm 0.00 in0.0 mm 0.00 in0.0 mm
06:24 PM 56.8°F13.8°C 37.4°F3.0°C 48% 4.6 mph W7.4 kmh W 11.5 mph18.5 kmh 30.21 in1023.0 mb 0.00 in0.0 mm 0.00 in0.0 mm 0.00 in0.0 mm
06:36 PM 55.6°F13.1°C 37.8°F3.2°C 51% 4.6 mph NW7.4 kmh NW 9.9 mph15.9 kmh 30.20 in1022.7 mb 0.00 in0.0 mm 0.00 in0.0 mm 0.00 in0.0 mm
06:48 PM 54.9°F12.7°C 39.0°F3.9°C 55% 3.9 mph W6.3 kmh W 8.4 mph13.5 kmh 30.20 in1022.7 mb 0.00 in0.0 mm 0.00 in0.0 mm 0.00 in0.0 mm
07:00 PM 54.0°F12.2°C 38.2°F3.4°C 55% 3.7 mph WNW6.0 kmh WNW 7.7 mph12.4 kmh 30.20 in1022.7 mb 0.00 in0.0 mm 0.00 in0.0 mm 0.00 in0.0 mm
07:12 PM 53.1°F11.7°C 38.2°F3.4°C 57% 3.7 mph W6.0 kmh W 7.0 mph11.3 kmh 30.20 in1022.7 mb 0.00 in0.0 mm 0.00 in0.0 mm 0.00 in0.0 mm
07:24 PM 52.2°F11.2°C 38.3°F3.5°C 59% 2.5 mph W4.0 kmh W 5.4 mph8.7 kmh 30.20 in1022.7 mb 0.00 in0.0 mm 0.00 in0.0 mm 0.00 in0.0 mm
07:36 PM 51.4°F10.8°C 38.4°F3.6°C 61% 2.6 mph W4.2 kmh W 5.4 mph8.7 kmh 30.20 in1022.7 mb 0.00 in0.0 mm 0.00 in0.0 mm 0.00 in0.0 mm
07:48 PM 50.9°F10.5°C 38.4°F3.6°C 62% 2.3 mph W3.7 kmh W 5.4 mph8.7 kmh 30.20 in1022.7 mb 0.00 in0.0 mm 0.00 in0.0 mm 0.00 in0.0 mm
08:00 PM 50.2°F10.1°C 38.1°F3.4°C 63% 2.8 mph W4.5 kmh W 5.4 mph8.7 kmh 30.20 in1022.7 mb 0.00 in0.0 mm 0.00 in0.0 mm 0.00 in0.0 mm
08:12 PM 49.6°F9.8°C 38.0°F3.3°C 64% 2.8 mph W4.5 kmh W 6.1 mph9.8 kmh 30.20 in1022.7 mb 0.00 in0.0 mm 0.00 in0.0 mm 0.00 in0.0 mm
08:24 PM 48.6°F9.2°C 37.3°F2.9°C 65% 2.6 mph W4.2 kmh W 4.5 mph7.2 kmh 30.20 in1022.7 mb 0.00 in0.0 mm 0.00 in0.0 mm 0.00 in0.0 mm
08:36 PM 48.4°F9.1°C 37.2°F2.9°C 65% 2.1 mph W3.4 kmh W 4.5 mph7.2 kmh 30.20 in1022.7 mb 0.00 in0.0 mm 0.00 in0.0 mm 0.00 in0.0 mm
08:48 PM 48.2°F9.0°C 37.0°F2.8°C 65% 1.8 mph W2.9 kmh W 4.5 mph7.2 kmh 30.19 in1022.4 mb 0.00 in0.0 mm 0.00 in0.0 mm 0.00 in0.0 mm
09:00 PM 47.5°F8.6°C 37.1°F2.8°C 67% 1.7 mph W2.7 kmh W 4.5 mph7.2 kmh 30.19 in1022.4 mb 0.00 in0.0 mm 0.00 in0.0 mm 0.00 in0.0 mm
09:12 PM 47.7°F8.7°C 36.9°F2.7°C 66% 2.1 mph W3.4 kmh W 3.8 mph6.1 kmh 30.18 in1022.0 mb 0.00 in0.0 mm 0.00 in0.0 mm 0.00 in0.0 mm
09:24 PM 47.3°F8.5°C 36.1°F2.3°C 65% 2.3 mph W3.7 kmh W 4.5 mph7.2 kmh 30.18 in1022.0 mb 0.00 in0.0 mm 0.00 in0.0 mm 0.00 in0.0 mm
09:36 PM 46.2°F7.9°C 36.3°F2.4°C 68% 1.7 mph W2.7 kmh W 3.8 mph6.1 kmh 30.18 in1022.0 mb 0.00 in0.0 mm 0.00 in0.0 mm 0.00 in0.0 mm
09:48 PM 45.5°F7.5°C 35.9°F2.2°C 69% 2.1 mph W3.4 kmh W 6.1 mph9.8 kmh 30.17 in1021.7 mb 0.00 in0.0 mm 0.00 in0.0 mm 0.00 in0.0 mm
10:00 PM 45.7°F7.6°C 37.2°F2.9°C 72% 2.6 mph W4.2 kmh W 5.4 mph8.7 kmh 30.17 in1021.7 mb 0.00 in0.0 mm 0.00 in0.0 mm 0.00 in0.0 mm
10:12 PM 45.5°F7.5°C 37.0°F2.8°C 72% 2.3 mph W3.7 kmh W 4.5 mph7.2 kmh 30.17 in1021.7 mb 0.00 in0.0 mm 0.00 in0.0 mm 0.00 in0.0 mm
10:24 PM 44.2°F6.8°C 36.1°F2.3°C 73% 2.2 mph W3.5 kmh W 4.5 mph7.2 kmh 30.17 in1021.7 mb 0.00 in0.0 mm 0.00 in0.0 mm 0.00 in0.0 mm
10:36 PM 43.7°F6.5°C 36.3°F2.4°C 75% 3.0 mph W4.8 kmh W 5.4 mph8.7 kmh 30.17 in1021.7 mb 0.00 in0.0 mm 0.00 in0.0 mm 0.00 in0.0 mm
10:48 PM 43.5°F6.4°C 36.5°F2.5°C 76% 2.8 mph W4.5 kmh W 5.4 mph8.7 kmh 30.16 in1021.3 mb 0.00 in0.0 mm 0.00 in0.0 mm 0.00 in0.0 mm
11:00 PM 43.0°F6.1°C 35.6°F2.0°C 75% 2.8 mph W4.5 kmh W 5.4 mph8.7 kmh 30.16 in1021.3 mb 0.00 in0.0 mm 0.00 in0.0 mm 0.00 in0.0 mm
11:12 PM 43.3°F6.3°C 36.0°F2.2°C 75% 2.6 mph W4.2 kmh W 5.4 mph8.7 kmh 30.16 in1021.3 mb 0.00 in0.0 mm 0.00 in0.0 mm 0.00 in0.0 mm
11:24 PM 43.2°F6.2°C 35.1°F1.7°C 73% 2.7 mph W4.3 kmh W 6.1 mph9.8 kmh 30.16 in1021.3 mb 0.00 in0.0 mm 0.00 in0.0 mm 0.00 in0.0 mm
11:36 PM 42.8°F6.0°C 34.8°F1.6°C 73% 1.5 mph W2.4 kmh W 3.8 mph6.1 kmh 30.15 in1021.0 mb 0.00 in0.0 mm 0.00 in0.0 mm 0.00 in0.0 mm
11:48 PM 42.4°F5.8°C 34.8°F1.6°C 74% 1.8 mph W2.9 kmh W 5.4 mph8.7 kmh 30.15 in1021.0 mb 0.00 in0.0 mm 0.00 in0.0 mm 0.00 in0.0 mm